sensor_id;sensor_type;location;lat;lon;timestamp;P1;durP1;ratioP1;P2;durP2;ratioP2
18574;SDS011;9417;16.484;102.872;2023-11-22T00:01:21;16.58;;;10.52;;
18574;SDS011;9417;16.484;102.872;2023-11-22T00:03:29;17.73;;;9.60;;
18574;SDS011;9417;16.484;102.872;2023-11-22T00:05:36;19.20;;;10.48;;
18574;SDS011;9417;16.484;102.872;2023-11-22T00:07:43;17.65;;;12.13;;
18574;SDS011;9417;16.484;102.872;2023-11-22T00:09:52;18.65;;;12.57;;
18574;SDS011;9417;16.484;102.872;2023-11-22T00:11:59;17.38;;;8.77;;
18574;SDS011;9417;16.484;102.872;2023-11-22T00:14:07;18.38;;;10.48;;
18574;SDS011;9417;16.484;102.872;2023-11-22T00:16:13;23.67;;;21.05;;
18574;SDS011;9417;16.484;102.872;2023-11-22T00:18:21;24.05;;;20.98;;
18574;SDS011;9417;16.484;102.872;2023-11-22T00:20:28;14.02;;;9.00;;
18574;SDS011;9417;16.484;102.872;2023-11-22T00:22:35;18.58;;;9.23;;
18574;SDS011;9417;16.484;102.872;2023-11-22T00:24:42;16.52;;;10.60;;
18574;SDS011;9417;16.484;102.872;2023-11-22T00:26:55;15.27;;;9.40;;
18574;SDS011;9417;16.484;102.872;2023-11-22T00:29:02;21.45;;;17.25;;
18574;SDS011;9417;16.484;102.872;2023-11-22T00:31:08;24.40;;;20.08;;
18574;SDS011;9417;16.484;102.872;2023-11-22T00:33:16;16.80;;;9.45;;
18574;SDS011;9417;16.484;102.872;2023-11-22T00:35:25;17.70;;;10.80;;
18574;SDS011;9417;16.484;102.872;2023-11-22T00:37:33;18.40;;;10.13;;
18574;SDS011;9417;16.484;102.872;2023-11-22T00:39:40;18.42;;;14.07;;
18574;SDS011;9417;16.484;102.872;2023-11-22T00:41:47;16.65;;;13.35;;
18574;SDS011;9417;16.484;102.872;2023-11-22T00:43:56;10.77;;;7.00;;
18574;SDS011;9417;16.484;102.872;2023-11-22T00:46:03;10.55;;;6.13;;
18574;SDS011;9417;16.484;102.872;2023-11-22T00:48:11;11.93;;;7.05;;
18574;SDS011;9417;16.484;102.872;2023-11-22T00:50:18;18.83;;;8.77;;
18574;SDS011;9417;16.484;102.872;2023-11-22T00:52:25;19.33;;;9.63;;
18574;SDS011;9417;16.484;102.872;2023-11-22T00:54:32;23.00;;;11.45;;
18574;SDS011;9417;16.484;102.872;2023-11-22T00:56:39;15.77;;;8.88;;
18574;SDS011;9417;16.484;102.872;2023-11-22T00:58:46;20.42;;;9.63;;
18574;SDS011;9417;16.484;102.872;2023-11-22T01:00:55;15.57;;;9.07;;
18574;SDS011;9417;16.484;102.872;2023-11-22T01:03:18;13.07;;;8.35;;
18574;SDS011;9417;16.484;102.872;2023-11-22T01:05:26;14.75;;;7.88;;
18574;SDS011;9417;16.484;102.872;2023-11-22T01:07:32;17.27;;;9.00;;
18574;SDS011;9417;16.484;102.872;2023-11-22T01:09:38;18.15;;;9.27;;
18574;SDS011;9417;16.484;102.872;2023-11-22T01:11:45;15.73;;;8.38;;
18574;SDS011;9417;16.484;102.872;2023-11-22T01:13:52;11.27;;;7.38;;
18574;SDS011;9417;16.484;102.872;2023-11-22T01:16:00;12.50;;;6.88;;
18574;SDS011;9417;16.484;102.872;2023-11-22T01:18:07;22.08;;;9.35;;
18574;SDS011;9417;16.484;102.872;2023-11-22T01:20:15;11.07;;;7.40;;
18574;SDS011;9417;16.484;102.872;2023-11-22T01:22:22;11.57;;;6.68;;
18574;SDS011;9417;16.484;102.872;2023-11-22T01:24:29;11.48;;;6.68;;
18574;SDS011;9417;16.484;102.872;2023-11-22T01:26:36;9.65;;;6.40;;
18574;SDS011;9417;16.484;102.872;2023-11-22T01:28:43;16.20;;;7.55;;
18574;SDS011;9417;16.484;102.872;2023-11-22T01:30:50;16.00;;;6.05;;
18574;SDS011;9417;16.484;102.872;2023-11-22T01:32:58;9.77;;;6.03;;
18574;SDS011;9417;16.484;102.872;2023-11-22T01:35:05;11.38;;;6.35;;
18574;SDS011;9417;16.484;102.872;2023-11-22T01:37:13;11.70;;;6.45;;
18574;SDS011;9417;16.484;102.872;2023-11-22T01:39:19;12.43;;;6.47;;
18574;SDS011;9417;16.484;102.872;2023-11-22T01:41:27;22.52;;;7.05;;
18574;SDS011;9417;16.484;102.872;2023-11-22T01:43:35;10.07;;;6.28;;
18574;SDS011;9417;16.484;102.872;2023-11-22T01:45:43;10.55;;;6.35;;
18574;SDS011;9417;16.484;102.872;2023-11-22T01:47:50;14.70;;;6.55;;
18574;SDS011;9417;16.484;102.872;2023-11-22T01:49:58;13.27;;;6.45;;
18574;SDS011;9417;16.484;102.872;2023-11-22T01:52:06;11.02;;;5.80;;
18574;SDS011;9417;16.484;102.872;2023-11-22T01:54:14;11.63;;;6.18;;
18574;SDS011;9417;16.484;102.872;2023-11-22T01:56:22;8.27;;;4.90;;
18574;SDS011;9417;16.484;102.872;2023-11-22T01:58:30;9.60;;;6.05;;
18574;SDS011;9417;16.484;102.872;2023-11-22T02:00:42;7.75;;;5.57;;
18574;SDS011;9417;16.484;102.872;2023-11-22T02:02:53;15.50;;;8.25;;
18574;SDS011;9417;16.484;102.872;2023-11-22T02:05:02;9.07;;;6.75;;
18574;SDS011;9417;16.484;102.872;2023-11-22T02:07:10;9.02;;;6.13;;
18574;SDS011;9417;16.484;102.872;2023-11-22T02:09:17;13.73;;;6.03;;
18574;SDS011;9417;16.484;102.872;2023-11-22T02:11:24;12.25;;;7.35;;
18574;SDS011;9417;16.484;102.872;2023-11-22T02:13:31;7.65;;;4.68;;
18574;SDS011;9417;16.484;102.872;2023-11-22T02:15:39;9.73;;;5.30;;
18574;SDS011;9417;16.484;102.872;2023-11-22T02:17:46;13.82;;;6.25;;
18574;SDS011;9417;16.484;102.872;2023-11-22T02:19:58;9.77;;;6.30;;
18574;SDS011;9417;16.484;102.872;2023-11-22T02:22:11;9.32;;;5.32;;
18574;SDS011;9417;16.484;102.872;2023-11-22T02:24:20;9.48;;;5.57;;
18574;SDS011;9417;16.484;102.872;2023-11-22T02:26:26;9.20;;;6.13;;
18574;SDS011;9417;16.484;102.872;2023-11-22T02:28:34;7.80;;;5.25;;
18574;SDS011;9417;16.484;102.872;2023-11-22T02:30:42;9.45;;;4.10;;
18574;SDS011;9417;16.484;102.872;2023-11-22T02:32:50;6.60;;;3.50;;
18574;SDS011;9417;16.484;102.872;2023-11-22T02:34:57;5.53;;;3.90;;
18574;SDS011;9417;16.484;102.872;2023-11-22T02:37:04;14.18;;;6.55;;
18574;SDS011;9417;16.484;102.872;2023-11-22T02:39:11;8.88;;;5.47;;
18574;SDS011;9417;16.484;102.872;2023-11-22T02:41:21;10.93;;;5.60;;
18574;SDS011;9417;16.484;102.872;2023-11-22T02:43:29;8.32;;;4.72;;
18574;SDS011;9417;16.484;102.872;2023-11-22T02:45:36;7.22;;;4.57;;
18574;SDS011;9417;16.484;102.872;2023-11-22T02:47:44;9.48;;;3.80;;
18574;SDS011;9417;16.484;102.872;2023-11-22T02:49:52;7.10;;;5.13;;
18574;SDS011;9417;16.484;102.872;2023-11-22T02:51:59;7.50;;;4.00;;
18574;SDS011;9417;16.484;102.872;2023-11-22T02:54:06;5.03;;;3.40;;
18574;SDS011;9417;16.484;102.872;2023-11-22T02:56:14;6.03;;;4.28;;
18574;SDS011;9417;16.484;102.872;2023-11-22T02:58:23;8.13;;;4.75;;
18574;SDS011;9417;16.484;102.872;2023-11-22T03:00:30;5.45;;;4.13;;
18574;SDS011;9417;16.484;102.872;2023-11-22T03:02:37;6.72;;;3.83;;
18574;SDS011;9417;16.484;102.872;2023-11-22T03:04:45;7.22;;;4.13;;
18574;SDS011;9417;16.484;102.872;2023-11-22T03:06:53;8.85;;;3.97;;
18574;SDS011;9417;16.484;102.872;2023-11-22T03:08:59;8.63;;;5.07;;
18574;SDS011;9417;16.484;102.872;2023-11-22T03:11:06;8.05;;;4.43;;
18574;SDS011;9417;16.484;102.872;2023-11-22T03:13:13;5.93;;;4.95;;
18574;SDS011;9417;16.484;102.872;2023-11-22T03:15:20;7.32;;;4.22;;
18574;SDS011;9417;16.484;102.872;2023-11-22T03:17:27;10.60;;;5.25;;
18574;SDS011;9417;16.484;102.872;2023-11-22T03:19:38;9.35;;;5.25;;
18574;SDS011;9417;16.484;102.872;2023-11-22T03:21:45;7.75;;;5.40;;
18574;SDS011;9417;16.484;102.872;2023-11-22T03:23:52;9.70;;;4.65;;
18574;SDS011;9417;16.484;102.872;2023-11-22T03:25:59;5.57;;;4.18;;
18574;SDS011;9417;16.484;102.872;2023-11-22T03:28:07;8.43;;;4.30;;
18574;SDS011;9417;16.484;102.872;2023-11-22T03:30:14;14.23;;;12.77;;
18574;SDS011;9417;16.484;102.872;2023-11-22T03:32:25;16.02;;;13.20;;
18574;SDS011;9417;16.484;102.872;2023-11-22T03:34:32;4.28;;;3.10;;
18574;SDS011;9417;16.484;102.872;2023-11-22T03:36:40;6.10;;;4.65;;
18574;SDS011;9417;16.484;102.872;2023-11-22T03:38:47;6.63;;;3.30;;
18574;SDS011;9417;16.484;102.872;2023-11-22T03:40:54;7.90;;;3.78;;
18574;SDS011;9417;16.484;102.872;2023-11-22T03:43:01;4.88;;;3.80;;
18574;SDS011;9417;16.484;102.872;2023-11-22T03:45:09;5.55;;;2.80;;
18574;SDS011;9417;16.484;102.872;2023-11-22T03:47:16;4.45;;;2.65;;
18574;SDS011;9417;16.484;102.872;2023-11-22T03:49:25;6.82;;;3.33;;
18574;SDS011;9417;16.484;102.872;2023-11-22T03:51:32;4.97;;;3.30;;
18574;SDS011;9417;16.484;102.872;2023-11-22T03:53:40;6.18;;;3.97;;
18574;SDS011;9417;16.484;102.872;2023-11-22T03:55:47;11.98;;;4.25;;
18574;SDS011;9417;16.484;102.872;2023-11-22T03:57:55;3.85;;;2.92;;
18574;SDS011;9417;16.484;102.872;2023-11-22T04:00:02;6.03;;;3.08;;
18574;SDS011;9417;16.484;102.872;2023-11-22T04:02:16;4.40;;;2.72;;
18574;SDS011;9417;16.484;102.872;2023-11-22T04:04:25;9.13;;;3.35;;
18574;SDS011;9417;16.484;102.872;2023-11-22T04:06:32;6.88;;;3.58;;
18574;SDS011;9417;16.484;102.872;2023-11-22T04:08:38;7.80;;;2.92;;
18574;SDS011;9417;16.484;102.872;2023-11-22T04:10:47;5.05;;;2.90;;
18574;SDS011;9417;16.484;102.872;2023-11-22T04:12:54;7.70;;;3.22;;
18574;SDS011;9417;16.484;102.872;2023-11-22T04:15:01;3.85;;;3.15;;
18574;SDS011;9417;16.484;102.872;2023-11-22T04:17:08;9.82;;;3.35;;
18574;SDS011;9417;16.484;102.872;2023-11-22T04:19:16;18.25;;;17.05;;
18574;SDS011;9417;16.484;102.872;2023-11-22T04:21:25;16.60;;;15.63;;
18574;SDS011;9417;16.484;102.872;2023-11-22T04:23:32;16.80;;;15.70;;
18574;SDS011;9417;16.484;102.872;2023-11-22T04:25:41;4.60;;;2.90;;
18574;SDS011;9417;16.484;102.872;2023-11-22T04:27:48;5.25;;;3.50;;
18574;SDS011;9417;16.484;102.872;2023-11-22T04:29:55;5.63;;;4.03;;
18574;SDS011;9417;16.484;102.872;2023-11-22T04:32:00;4.00;;;2.97;;
18574;SDS011;9417;16.484;102.872;2023-11-22T04:34:08;6.70;;;3.15;;
18574;SDS011;9417;16.484;102.872;2023-11-22T04:36:14;4.88;;;3.55;;
18574;SDS011;9417;16.484;102.872;2023-11-22T04:38:26;6.85;;;3.42;;
18574;SDS011;9417;16.484;102.872;2023-11-22T04:40:33;2.75;;;2.53;;
18574;SDS011;9417;16.484;102.872;2023-11-22T04:42:40;5.63;;;3.63;;
18574;SDS011;9417;16.484;102.872;2023-11-22T04:44:47;6.10;;;3.42;;
18574;SDS011;9417;16.484;102.872;2023-11-22T04:46:55;5.57;;;3.25;;
18574;SDS011;9417;16.484;102.872;2023-11-22T04:49:02;5.72;;;3.90;;
18574;SDS011;9417;16.484;102.872;2023-11-22T04:51:11;9.10;;;3.55;;
18574;SDS011;9417;16.484;102.872;2023-11-22T04:53:19;7.35;;;3.92;;
18574;SDS011;9417;16.484;102.872;2023-11-22T04:55:28;4.20;;;2.95;;
18574;SDS011;9417;16.484;102.872;2023-11-22T04:57:35;7.20;;;3.38;;
18574;SDS011;9417;16.484;102.872;2023-11-22T04:59:43;7.72;;;3.40;;
18574;SDS011;9417;16.484;102.872;2023-11-22T05:01:51;5.00;;;3.10;;
18574;SDS011;9417;16.484;102.872;2023-11-22T05:03:58;4.60;;;3.35;;
18574;SDS011;9417;16.484;102.872;2023-11-22T05:06:05;6.95;;;3.85;;
18574;SDS011;9417;16.484;102.872;2023-11-22T05:08:13;3.42;;;3.13;;
18574;SDS011;9417;16.484;102.872;2023-11-22T05:10:20;6.35;;;3.53;;
18574;SDS011;9417;16.484;102.872;2023-11-22T05:12:28;3.13;;;2.83;;
18574;SDS011;9417;16.484;102.872;2023-11-22T05:14:36;4.57;;;2.97;;
18574;SDS011;9417;16.484;102.872;2023-11-22T05:16:43;5.57;;;3.95;;
18574;SDS011;9417;16.484;102.872;2023-11-22T05:18:51;5.53;;;3.15;;
18574;SDS011;9417;16.484;102.872;2023-11-22T05:20:58;6.90;;;3.75;;
18574;SDS011;9417;16.484;102.872;2023-11-22T05:23:06;4.15;;;3.55;;
18574;SDS011;9417;16.484;102.872;2023-11-22T05:25:14;6.07;;;3.78;;
18574;SDS011;9417;16.484;102.872;2023-11-22T05:27:21;4.95;;;4.18;;
18574;SDS011;9417;16.484;102.872;2023-11-22T05:29:30;6.40;;;3.47;;
18574;SDS011;9417;16.484;102.872;2023-11-22T05:31:48;5.00;;;3.38;;
18574;SDS011;9417;16.484;102.872;2023-11-22T05:33:56;6.53;;;3.05;;
18574;SDS011;9417;16.484;102.872;2023-11-22T05:36:03;7.40;;;3.58;;
18574;SDS011;9417;16.484;102.872;2023-11-22T05:38:11;4.38;;;3.63;;
18574;SDS011;9417;16.484;102.872;2023-11-22T05:40:18;7.63;;;4.15;;
18574;SDS011;9417;16.484;102.872;2023-11-22T05:42:25;5.35;;;3.55;;
18574;SDS011;9417;16.484;102.872;2023-11-22T05:44:32;3.08;;;2.63;;
18574;SDS011;9417;16.484;102.872;2023-11-22T05:46:39;3.28;;;2.45;;
18574;SDS011;9417;16.484;102.872;2023-11-22T05:48:46;4.13;;;3.50;;
18574;SDS011;9417;16.484;102.872;2023-11-22T05:50:54;4.75;;;3.33;;
18574;SDS011;9417;16.484;102.872;2023-11-22T05:53:01;4.63;;;3.05;;
18574;SDS011;9417;16.484;102.872;2023-11-22T05:55:09;6.35;;;2.90;;
18574;SDS011;9417;16.484;102.872;2023-11-22T05:57:17;3.95;;;3.13;;
18574;SDS011;9417;16.484;102.872;2023-11-22T05:59:25;7.57;;;3.92;;
18574;SDS011;9417;16.484;102.872;2023-11-22T06:01:34;3.55;;;3.25;;
18574;SDS011;9417;16.484;102.872;2023-11-22T06:03:41;5.90;;;3.97;;
18574;SDS011;9417;16.484;102.872;2023-11-22T06:05:48;4.97;;;3.30;;
18574;SDS011;9417;16.484;102.872;2023-11-22T06:07:56;6.20;;;3.38;;
18574;SDS011;9417;16.484;102.872;2023-11-22T06:10:03;4.57;;;3.47;;
18574;SDS011;9417;16.484;102.872;2023-11-22T06:12:10;5.30;;;3.78;;
18574;SDS011;9417;16.484;102.872;2023-11-22T06:14:17;5.38;;;3.35;;
18574;SDS011;9417;16.484;102.872;2023-11-22T06:16:25;3.97;;;2.90;;
18574;SDS011;9417;16.484;102.872;2023-11-22T06:18:34;3.70;;;3.15;;
18574;SDS011;9417;16.484;102.872;2023-11-22T06:22:51;3.30;;;2.53;;
18574;SDS011;9417;16.484;102.872;2023-11-22T06:24:58;3.30;;;3.00;;
18574;SDS011;9417;16.484;102.872;2023-11-22T06:27:05;3.72;;;2.92;;
18574;SDS011;9417;16.484;102.872;2023-11-22T06:29:12;14.63;;;4.03;;
18574;SDS011;9417;16.484;102.872;2023-11-22T06:31:19;7.68;;;3.45;;
18574;SDS011;9417;16.484;102.872;2023-11-22T06:33:25;4.05;;;2.80;;
18574;SDS011;9417;16.484;102.872;2023-11-22T06:35:34;13.45;;;3.78;;
18574;SDS011;9417;16.484;102.872;2023-11-22T06:37:41;3.28;;;2.75;;
18574;SDS011;9417;16.484;102.872;2023-11-22T06:39:48;3.03;;;2.55;;
18574;SDS011;9417;16.484;102.872;2023-11-22T06:41:56;4.53;;;2.85;;
18574;SDS011;9417;16.484;102.872;2023-11-22T06:44:03;6.88;;;2.90;;
18574;SDS011;9417;16.484;102.872;2023-11-22T06:46:10;4.40;;;3.13;;
18574;SDS011;9417;16.484;102.872;2023-11-22T06:48:16;4.63;;;2.75;;
18574;SDS011;9417;16.484;102.872;2023-11-22T06:50:23;4.22;;;2.38;;
18574;SDS011;9417;16.484;102.872;2023-11-22T06:52:32;4.82;;;3.20;;
18574;SDS011;9417;16.484;102.872;2023-11-22T06:54:39;5.00;;;3.13;;
18574;SDS011;9417;16.484;102.872;2023-11-22T06:56:45;8.15;;;3.60;;
18574;SDS011;9417;16.484;102.872;2023-11-22T06:58:53;5.65;;;3.17;;
18574;SDS011;9417;16.484;102.872;2023-11-22T07:01:00;5.93;;;2.83;;
18574;SDS011;9417;16.484;102.872;2023-11-22T07:03:07;4.78;;;2.97;;
18574;SDS011;9417;16.484;102.872;2023-11-22T07:05:16;2.47;;;2.20;;
18574;SDS011;9417;16.484;102.872;2023-11-22T07:07:23;4.20;;;3.17;;
18574;SDS011;9417;16.484;102.872;2023-11-22T07:09:30;4.28;;;2.83;;
18574;SDS011;9417;16.484;102.872;2023-11-22T07:11:38;4.03;;;3.63;;
18574;SDS011;9417;16.484;102.872;2023-11-22T07:13:47;3.35;;;2.67;;
18574;SDS011;9417;16.484;102.872;2023-11-22T07:15:54;3.85;;;2.50;;
18574;SDS011;9417;16.484;102.872;2023-11-22T07:18:02;3.25;;;2.95;;
18574;SDS011;9417;16.484;102.872;2023-11-22T07:20:09;5.32;;;3.08;;
18574;SDS011;9417;16.484;102.872;2023-11-22T07:22:19;5.38;;;3.42;;
18574;SDS011;9417;16.484;102.872;2023-11-22T07:24:27;4.20;;;2.78;;
18574;SDS011;9417;16.484;102.872;2023-11-22T07:26:37;6.35;;;3.15;;
18574;SDS011;9417;16.484;102.872;2023-11-22T07:28:46;4.28;;;2.75;;
18574;SDS011;9417;16.484;102.872;2023-11-22T07:30:53;3.28;;;2.20;;
18574;SDS011;9417;16.484;102.872;2023-11-22T07:33:00;3.15;;;2.30;;
18574;SDS011;9417;16.484;102.872;2023-11-22T07:35:07;6.05;;;2.35;;
18574;SDS011;9417;16.484;102.872;2023-11-22T07:37:15;4.07;;;2.92;;
18574;SDS011;9417;16.484;102.872;2023-11-22T07:39:22;6.40;;;2.75;;
18574;SDS011;9417;16.484;102.872;2023-11-22T07:41:32;5.20;;;3.17;;
18574;SDS011;9417;16.484;102.872;2023-11-22T07:43:39;3.72;;;2.80;;
18574;SDS011;9417;16.484;102.872;2023-11-22T07:45:48;6.72;;;2.85;;
18574;SDS011;9417;16.484;102.872;2023-11-22T07:47:55;5.22;;;3.45;;
18574;SDS011;9417;16.484;102.872;2023-11-22T07:50:03;7.78;;;3.92;;
18574;SDS011;9417;16.484;102.872;2023-11-22T07:52:12;4.18;;;3.35;;
18574;SDS011;9417;16.484;102.872;2023-11-22T07:54:18;6.50;;;3.38;;
18574;SDS011;9417;16.484;102.872;2023-11-22T07:56:25;5.88;;;3.63;;
18574;SDS011;9417;16.484;102.872;2023-11-22T07:58:35;4.38;;;2.85;;
18574;SDS011;9417;16.484;102.872;2023-11-22T08:00:40;6.70;;;3.75;;
18574;SDS011;9417;16.484;102.872;2023-11-22T08:02:49;8.93;;;3.80;;
18574;SDS011;9417;16.484;102.872;2023-11-22T08:04:57;7.32;;;4.43;;
18574;SDS011;9417;16.484;102.872;2023-11-22T08:07:05;5.15;;;3.08;;
18574;SDS011;9417;16.484;102.872;2023-11-22T08:09:14;3.50;;;2.90;;
18574;SDS011;9417;16.484;102.872;2023-11-22T08:11:23;3.15;;;2.63;;
18574;SDS011;9417;16.484;102.872;2023-11-22T08:13:31;3.70;;;2.50;;
18574;SDS011;9417;16.484;102.872;2023-11-22T08:15:41;5.20;;;3.30;;
18574;SDS011;9417;16.484;102.872;2023-11-22T08:17:49;9.38;;;3.88;;
18574;SDS011;9417;16.484;102.872;2023-11-22T08:19:57;2.97;;;2.63;;
18574;SDS011;9417;16.484;102.872;2023-11-22T08:22:03;3.33;;;2.88;;
18574;SDS011;9417;16.484;102.872;2023-11-22T08:24:10;5.30;;;3.58;;
18574;SDS011;9417;16.484;102.872;2023-11-22T08:26:18;4.07;;;2.80;;
18574;SDS011;9417;16.484;102.872;2023-11-22T08:28:25;3.28;;;2.63;;
18574;SDS011;9417;16.484;102.872;2023-11-22T08:30:32;4.28;;;3.40;;
18574;SDS011;9417;16.484;102.872;2023-11-22T08:32:42;5.55;;;3.15;;
18574;SDS011;9417;16.484;102.872;2023-11-22T08:34:54;3.95;;;3.25;;
18574;SDS011;9417;16.484;102.872;2023-11-22T08:37:00;4.10;;;3.17;;
18574;SDS011;9417;16.484;102.872;2023-11-22T08:39:07;6.07;;;3.22;;
18574;SDS011;9417;16.484;102.872;2023-11-22T08:41:14;3.92;;;3.58;;
18574;SDS011;9417;16.484;102.872;2023-11-22T08:43:21;7.43;;;3.75;;
18574;SDS011;9417;16.484;102.872;2023-11-22T08:45:29;7.30;;;3.45;;
18574;SDS011;9417;16.484;102.872;2023-11-22T08:47:36;2.90;;;2.63;;
18574;SDS011;9417;16.484;102.872;2023-11-22T08:49:45;3.63;;;3.28;;
18574;SDS011;9417;16.484;102.872;2023-11-22T08:51:52;3.15;;;2.50;;
18574;SDS011;9417;16.484;102.872;2023-11-22T08:53:59;4.25;;;2.60;;
18574;SDS011;9417;16.484;102.872;2023-11-22T08:56:07;2.75;;;2.05;;
18574;SDS011;9417;16.484;102.872;2023-11-22T08:58:14;2.83;;;2.30;;
18574;SDS011;9417;16.484;102.872;2023-11-22T09:00:22;5.13;;;3.00;;
18574;SDS011;9417;16.484;102.872;2023-11-22T09:02:31;7.10;;;2.70;;
18574;SDS011;9417;16.484;102.872;2023-11-22T09:04:37;3.50;;;3.15;;
18574;SDS011;9417;16.484;102.872;2023-11-22T09:06:46;7.50;;;3.35;;
18574;SDS011;9417;16.484;102.872;2023-11-22T09:08:53;6.30;;;2.80;;
18574;SDS011;9417;16.484;102.872;2023-11-22T09:11:00;4.57;;;3.13;;
18574;SDS011;9417;16.484;102.872;2023-11-22T09:13:10;4.05;;;2.50;;
18574;SDS011;9417;16.484;102.872;2023-11-22T09:15:20;3.88;;;2.65;;
18574;SDS011;9417;16.484;102.872;2023-11-22T09:17:31;4.90;;;3.20;;
18574;SDS011;9417;16.484;102.872;2023-11-22T09:19:37;5.18;;;3.17;;
18574;SDS011;9417;16.484;102.872;2023-11-22T09:21:46;4.20;;;3.10;;
18574;SDS011;9417;16.484;102.872;2023-11-22T09:23:53;21.55;;;19.45;;
18574;SDS011;9417;16.484;102.872;2023-11-22T09:26:00;22.13;;;19.48;;
18574;SDS011;9417;16.484;102.872;2023-11-22T09:28:09;21.23;;;19.27;;
18574;SDS011;9417;16.484;102.872;2023-11-22T09:30:16;22.70;;;20.60;;
18574;SDS011;9417;16.484;102.872;2023-11-22T09:32:36;4.15;;;2.97;;
18574;SDS011;9417;16.484;102.872;2023-11-22T09:34:44;4.57;;;3.50;;
18574;SDS011;9417;16.484;102.872;2023-11-22T09:36:53;5.78;;;3.30;;
18574;SDS011;9417;16.484;102.872;2023-11-22T09:39:00;3.53;;;2.80;;
18574;SDS011;9417;16.484;102.872;2023-11-22T09:41:06;4.18;;;3.25;;
18574;SDS011;9417;16.484;102.872;2023-11-22T09:43:14;4.00;;;2.78;;
18574;SDS011;9417;16.484;102.872;2023-11-22T09:45:22;8.55;;;3.20;;
18574;SDS011;9417;16.484;102.872;2023-11-22T09:47:29;3.90;;;2.60;;
18574;SDS011;9417;16.484;102.872;2023-11-22T09:49:39;3.72;;;2.80;;
18574;SDS011;9417;16.484;102.872;2023-11-22T09:51:47;4.43;;;3.13;;
18574;SDS011;9417;16.484;102.872;2023-11-22T09:53:58;2.78;;;2.40;;
18574;SDS011;9417;16.484;102.872;2023-11-22T09:56:10;4.28;;;3.30;;
18574;SDS011;9417;16.484;102.872;2023-11-22T09:58:17;10.60;;;9.90;;
18574;SDS011;9417;16.484;102.872;2023-11-22T10:00:27;2.63;;;2.35;;
18574;SDS011;9417;16.484;102.872;2023-11-22T10:02:35;4.47;;;2.40;;
18574;SDS011;9417;16.484;102.872;2023-11-22T10:04:42;2.15;;;1.90;;
18574;SDS011;9417;16.484;102.872;2023-11-22T10:06:49;2.28;;;1.90;;
18574;SDS011;9417;16.484;102.872;2023-11-22T10:08:58;2.20;;;2.00;;
18574;SDS011;9417;16.484;102.872;2023-11-22T10:11:24;2.38;;;1.88;;
18574;SDS011;9417;16.484;102.872;2023-11-22T10:13:32;2.08;;;1.80;;
18574;SDS011;9417;16.484;102.872;2023-11-22T10:15:39;2.00;;;1.75;;
18574;SDS011;9417;16.484;102.872;2023-11-22T10:17:54;4.75;;;2.95;;
18574;SDS011;9417;16.484;102.872;2023-11-22T10:20:08;5.95;;;2.28;;
18574;SDS011;9417;16.484;102.872;2023-11-22T10:22:16;2.45;;;2.22;;
18574;SDS011;9417;16.484;102.872;2023-11-22T10:24:25;3.03;;;2.20;;
18574;SDS011;9417;16.484;102.872;2023-11-22T10:26:37;10.65;;;9.95;;
18574;SDS011;9417;16.484;102.872;2023-11-22T10:28:47;3.00;;;2.10;;
18574;SDS011;9417;16.484;102.872;2023-11-22T10:30:57;4.13;;;3.75;;
18574;SDS011;9417;16.484;102.872;2023-11-22T10:33:04;2.63;;;1.83;;
18574;SDS011;9417;16.484;102.872;2023-11-22T10:35:11;13.50;;;12.40;;
18574;SDS011;9417;16.484;102.872;2023-11-22T10:37:22;13.55;;;12.55;;
18574;SDS011;9417;16.484;102.872;2023-11-22T10:39:30;4.78;;;2.85;;
18574;SDS011;9417;16.484;102.872;2023-11-22T10:41:38;2.97;;;2.67;;
18574;SDS011;9417;16.484;102.872;2023-11-22T10:43:45;2.60;;;2.00;;
18574;SDS011;9417;16.484;102.872;2023-11-22T10:45:52;2.65;;;1.88;;
18574;SDS011;9417;16.484;102.872;2023-11-22T10:48:01;3.38;;;2.30;;
18574;SDS011;9417;16.484;102.872;2023-11-22T10:50:09;4.45;;;2.92;;
18574;SDS011;9417;16.484;102.872;2023-11-22T10:52:16;4.90;;;2.50;;
18574;SDS011;9417;16.484;102.872;2023-11-22T10:54:25;6.57;;;2.85;;
18574;SDS011;9417;16.484;102.872;2023-11-22T10:56:36;3.63;;;2.95;;
18574;SDS011;9417;16.484;102.872;2023-11-22T10:58:46;3.78;;;2.90;;
18574;SDS011;9417;16.484;102.872;2023-11-22T11:00:55;5.28;;;3.25;;
18574;SDS011;9417;16.484;102.872;2023-11-22T11:03:08;2.97;;;2.65;;
18574;SDS011;9417;16.484;102.872;2023-11-22T11:05:20;5.55;;;2.85;;
18574;SDS011;9417;16.484;102.872;2023-11-22T11:07:31;4.68;;;2.95;;
18574;SDS011;9417;16.484;102.872;2023-11-22T11:11:53;6.78;;;3.40;;
18574;SDS011;9417;16.484;102.872;2023-11-22T11:14:00;3.58;;;3.25;;
18574;SDS011;9417;16.484;102.872;2023-11-22T11:16:11;3.83;;;3.53;;
18574;SDS011;9417;16.484;102.872;2023-11-22T11:18:18;5.03;;;3.78;;
18574;SDS011;9417;16.484;102.872;2023-11-22T11:20:25;6.53;;;3.97;;
18574;SDS011;9417;16.484;102.872;2023-11-22T11:22:37;8.68;;;4.65;;
18574;SDS011;9417;16.484;102.872;2023-11-22T11:24:44;9.20;;;5.07;;
18574;SDS011;9417;16.484;102.872;2023-11-22T11:26:56;6.30;;;4.00;;
18574;SDS011;9417;16.484;102.872;2023-11-22T11:29:09;8.70;;;5.80;;
18574;SDS011;9417;16.484;102.872;2023-11-22T11:31:38;7.72;;;5.22;;
18574;SDS011;9417;16.484;102.872;2023-11-22T11:33:53;15.00;;;6.65;;
18574;SDS011;9417;16.484;102.872;2023-11-22T11:36:02;9.23;;;6.03;;
18574;SDS011;9417;16.484;102.872;2023-11-22T11:38:10;9.02;;;5.47;;
18574;SDS011;9417;16.484;102.872;2023-11-22T11:40:27;7.38;;;5.68;;
18574;SDS011;9417;16.484;102.872;2023-11-22T11:42:41;10.10;;;9.05;;
18574;SDS011;9417;16.484;102.872;2023-11-22T11:45:05;15.18;;;13.63;;
18574;SDS011;9417;16.484;102.872;2023-11-22T11:47:13;20.10;;;12.98;;
18574;SDS011;9417;16.484;102.872;2023-11-22T11:49:20;17.98;;;10.48;;
18574;SDS011;9417;16.484;102.872;2023-11-22T11:51:28;16.95;;;10.57;;
18574;SDS011;9417;16.484;102.872;2023-11-22T11:53:36;10.77;;;7.18;;
18574;SDS011;9417;16.484;102.872;2023-11-22T11:55:43;11.80;;;7.25;;
18574;SDS011;9417;16.484;102.872;2023-11-22T11:57:51;8.52;;;5.55;;
18574;SDS011;9417;16.484;102.872;2023-11-22T12:00:00;8.77;;;5.60;;
18574;SDS011;9417;16.484;102.872;2023-11-22T12:02:15;19.00;;;17.05;;
18574;SDS011;9417;16.484;102.872;2023-11-22T12:04:22;23.10;;;18.55;;
18574;SDS011;9417;16.484;102.872;2023-11-22T12:06:29;20.63;;;18.42;;
18574;SDS011;9417;16.484;102.872;2023-11-22T12:08:40;22.13;;;18.33;;
18574;SDS011;9417;16.484;102.872;2023-11-22T12:10:47;7.43;;;5.97;;
18574;SDS011;9417;16.484;102.872;2023-11-22T12:12:56;10.93;;;5.88;;
18574;SDS011;9417;16.484;102.872;2023-11-22T12:15:04;9.65;;;5.38;;
18574;SDS011;9417;16.484;102.872;2023-11-22T12:17:11;11.40;;;6.10;;
18574;SDS011;9417;16.484;102.872;2023-11-22T12:19:23;9.75;;;6.18;;
18574;SDS011;9417;16.484;102.872;2023-11-22T12:21:31;9.60;;;5.95;;
18574;SDS011;9417;16.484;102.872;2023-11-22T12:23:38;9.18;;;6.22;;
18574;SDS011;9417;16.484;102.872;2023-11-22T12:25:46;9.45;;;6.57;;
18574;SDS011;9417;16.484;102.872;2023-11-22T12:27:57;10.52;;;6.28;;
18574;SDS011;9417;16.484;102.872;2023-11-22T12:30:04;8.77;;;6.13;;
18574;SDS011;9417;16.484;102.872;2023-11-22T12:32:12;24.75;;;20.17;;
18574;SDS011;9417;16.484;102.872;2023-11-22T12:34:21;21.77;;;19.85;;
18574;SDS011;9417;16.484;102.872;2023-11-22T12:36:29;8.50;;;6.13;;
18574;SDS011;9417;16.484;102.872;2023-11-22T12:38:35;12.73;;;7.07;;
18574;SDS011;9417;16.484;102.872;2023-11-22T12:40:45;9.60;;;6.28;;
18574;SDS011;9417;16.484;102.872;2023-11-22T12:42:53;12.30;;;7.07;;